sensor_id;sensor_type;location;lat;lon;timestamp;P1;durP1;ratioP1;P2;durP2;ratioP2
59424;SDS011;45231;44.826;20.312;2023-07-02T00:02:20;15.85;;;6.88;;
59424;SDS011;45231;44.826;20.312;2023-07-02T00:07:12;11.80;;;7.07;;
59424;SDS011;45231;44.826;20.312;2023-07-02T00:09:39;13.38;;;7.05;;
59424;SDS011;45231;44.826;20.312;2023-07-02T00:12:06;13.52;;;7.38;;
59424;SDS011;45231;44.826;20.312;2023-07-02T00:14:32;12.68;;;7.70;;
59424;SDS011;45231;44.826;20.312;2023-07-02T00:16:58;10.68;;;6.68;;
59424;SDS011;45231;44.826;20.312;2023-07-02T00:19:24;12.40;;;6.53;;
59424;SDS011;45231;44.826;20.312;2023-07-02T00:21:50;13.25;;;7.35;;
59424;SDS011;45231;44.826;20.312;2023-07-02T00:24:18;11.05;;;6.25;;
59424;SDS011;45231;44.826;20.312;2023-07-02T00:26:44;11.20;;;7.30;;
59424;SDS011;45231;44.826;20.312;2023-07-02T00:29:11;13.30;;;7.57;;
59424;SDS011;45231;44.826;20.312;2023-07-02T00:31:37;11.20;;;6.80;;
59424;SDS011;45231;44.826;20.312;2023-07-02T00:34:03;11.10;;;6.88;;
59424;SDS011;45231;44.826;20.312;2023-07-02T00:36:30;13.02;;;7.40;;
59424;SDS011;45231;44.826;20.312;2023-07-02T00:38:56;12.75;;;6.72;;
59424;SDS011;45231;44.826;20.312;2023-07-02T00:41:23;12.68;;;7.00;;
59424;SDS011;45231;44.826;20.312;2023-07-02T00:43:49;14.18;;;7.75;;
59424;SDS011;45231;44.826;20.312;2023-07-02T00:46:19;11.73;;;7.65;;
59424;SDS011;45231;44.826;20.312;2023-07-02T00:48:50;13.20;;;6.95;;
59424;SDS011;45231;44.826;20.312;2023-07-02T00:51:23;13.32;;;7.25;;
59424;SDS011;45231;44.826;20.312;2023-07-02T00:53:50;12.77;;;7.53;;
59424;SDS011;45231;44.826;20.312;2023-07-02T00:56:17;16.83;;;8.00;;
59424;SDS011;45231;44.826;20.312;2023-07-02T00:58:44;12.73;;;8.27;;
59424;SDS011;45231;44.826;20.312;2023-07-02T01:01:18;13.77;;;7.72;;
59424;SDS011;45231;44.826;20.312;2023-07-02T01:03:57;14.60;;;7.75;;
59424;SDS011;45231;44.826;20.312;2023-07-02T01:06:33;16.73;;;9.15;;
59424;SDS011;45231;44.826;20.312;2023-07-02T01:09:04;12.40;;;7.55;;
59424;SDS011;45231;44.826;20.312;2023-07-02T01:11:34;13.73;;;7.07;;
59424;SDS011;45231;44.826;20.312;2023-07-02T01:14:46;11.95;;;7.32;;
59424;SDS011;45231;44.826;20.312;2023-07-02T01:16:47;13.60;;;8.20;;
59424;SDS011;45231;44.826;20.312;2023-07-02T01:19:18;13.73;;;8.23;;
59424;SDS011;45231;44.826;20.312;2023-07-02T01:21:46;13.70;;;7.65;;
59424;SDS011;45231;44.826;20.312;2023-07-02T01:24:12;13.55;;;7.65;;
59424;SDS011;45231;44.826;20.312;2023-07-02T01:31:40;15.05;;;7.50;;
59424;SDS011;45231;44.826;20.312;2023-07-02T01:34:06;12.32;;;7.07;;
59424;SDS011;45231;44.826;20.312;2023-07-02T01:38:59;20.08;;;8.20;;
59424;SDS011;45231;44.826;20.312;2023-07-02T01:41:25;13.73;;;7.13;;
59424;SDS011;45231;44.826;20.312;2023-07-02T01:43:51;12.07;;;7.22;;
59424;SDS011;45231;44.826;20.312;2023-07-02T01:46:17;14.35;;;8.20;;
59424;SDS011;45231;44.826;20.312;2023-07-02T01:48:43;12.38;;;7.60;;
59424;SDS011;45231;44.826;20.312;2023-07-02T01:51:09;16.58;;;7.90;;
59424;SDS011;45231;44.826;20.312;2023-07-02T01:53:35;13.35;;;8.15;;
59424;SDS011;45231;44.826;20.312;2023-07-02T01:56:01;13.45;;;7.53;;
59424;SDS011;45231;44.826;20.312;2023-07-02T01:58:27;18.90;;;8.52;;
59424;SDS011;45231;44.826;20.312;2023-07-02T02:00:53;20.08;;;8.90;;
59424;SDS011;45231;44.826;20.312;2023-07-02T02:03:19;13.40;;;8.73;;
59424;SDS011;45231;44.826;20.312;2023-07-02T02:08:11;17.75;;;8.50;;
59424;SDS011;45231;44.826;20.312;2023-07-02T02:10:37;15.50;;;8.63;;
59424;SDS011;45231;44.826;20.312;2023-07-02T02:15:30;13.02;;;8.18;;
59424;SDS011;45231;44.826;20.312;2023-07-02T02:17:56;13.52;;;8.45;;
59424;SDS011;45231;44.826;20.312;2023-07-02T02:20:22;12.82;;;7.90;;
59424;SDS011;45231;44.826;20.312;2023-07-02T02:22:48;14.32;;;8.63;;
59424;SDS011;45231;44.826;20.312;2023-07-02T02:25:14;13.68;;;8.25;;
59424;SDS011;45231;44.826;20.312;2023-07-02T02:27:40;13.35;;;8.60;;
59424;SDS011;45231;44.826;20.312;2023-07-02T02:30:08;15.77;;;8.38;;
59424;SDS011;45231;44.826;20.312;2023-07-02T02:32:34;14.20;;;8.63;;
59424;SDS011;45231;44.826;20.312;2023-07-02T02:35:00;16.13;;;8.73;;
59424;SDS011;45231;44.826;20.312;2023-07-02T02:37:27;13.23;;;7.78;;
59424;SDS011;45231;44.826;20.312;2023-07-02T02:39:53;12.93;;;7.68;;
59424;SDS011;45231;44.826;20.312;2023-07-02T02:42:19;13.70;;;8.13;;
59424;SDS011;45231;44.826;20.312;2023-07-02T02:44:45;14.82;;;8.57;;
59424;SDS011;45231;44.826;20.312;2023-07-02T02:47:11;16.23;;;8.30;;
59424;SDS011;45231;44.826;20.312;2023-07-02T02:49:37;16.23;;;8.18;;
59424;SDS011;45231;44.826;20.312;2023-07-02T02:52:04;14.68;;;8.10;;
59424;SDS011;45231;44.826;20.312;2023-07-02T02:54:30;13.60;;;8.38;;
59424;SDS011;45231;44.826;20.312;2023-07-02T02:56:56;16.90;;;7.93;;
59424;SDS011;45231;44.826;20.312;2023-07-02T02:59:22;12.15;;;7.55;;
59424;SDS011;45231;44.826;20.312;2023-07-02T03:01:48;14.65;;;8.65;;
59424;SDS011;45231;44.826;20.312;2023-07-02T03:04:16;14.50;;;8.50;;
59424;SDS011;45231;44.826;20.312;2023-07-02T03:06:42;13.75;;;7.22;;
59424;SDS011;45231;44.826;20.312;2023-07-02T03:09:11;14.77;;;8.13;;
59424;SDS011;45231;44.826;20.312;2023-07-02T03:11:37;12.15;;;7.43;;
59424;SDS011;45231;44.826;20.312;2023-07-02T03:14:03;12.25;;;7.75;;
59424;SDS011;45231;44.826;20.312;2023-07-02T03:16:29;13.43;;;7.88;;
59424;SDS011;45231;44.826;20.312;2023-07-02T03:18:55;14.68;;;7.22;;
59424;SDS011;45231;44.826;20.312;2023-07-02T03:21:21;13.75;;;7.90;;
59424;SDS011;45231;44.826;20.312;2023-07-02T03:23:47;10.88;;;7.18;;
59424;SDS011;45231;44.826;20.312;2023-07-02T03:26:13;11.75;;;7.53;;
59424;SDS011;45231;44.826;20.312;2023-07-02T03:28:39;11.73;;;7.45;;
59424;SDS011;45231;44.826;20.312;2023-07-02T03:31:05;12.10;;;7.25;;
59424;SDS011;45231;44.826;20.312;2023-07-02T03:33:32;14.20;;;7.55;;
59424;SDS011;45231;44.826;20.312;2023-07-02T03:35:58;13.70;;;8.48;;
59424;SDS011;45231;44.826;20.312;2023-07-02T03:38:24;13.75;;;7.60;;
59424;SDS011;45231;44.826;20.312;2023-07-02T03:40:50;12.02;;;7.43;;
59424;SDS011;45231;44.826;20.312;2023-07-02T03:43:16;12.90;;;7.05;;
59424;SDS011;45231;44.826;20.312;2023-07-02T03:45:42;12.20;;;7.72;;
59424;SDS011;45231;44.826;20.312;2023-07-02T03:48:08;12.10;;;6.78;;
59424;SDS011;45231;44.826;20.312;2023-07-02T03:50:34;13.77;;;7.32;;
59424;SDS011;45231;44.826;20.312;2023-07-02T03:53:00;12.43;;;7.70;;
59424;SDS011;45231;44.826;20.312;2023-07-02T03:55:26;14.80;;;7.88;;
59424;SDS011;45231;44.826;20.312;2023-07-02T03:57:52;12.73;;;7.35;;
59424;SDS011;45231;44.826;20.312;2023-07-02T04:00:18;12.52;;;7.20;;
59424;SDS011;45231;44.826;20.312;2023-07-02T04:02:44;12.40;;;7.40;;
59424;SDS011;45231;44.826;20.312;2023-07-02T04:05:10;12.73;;;6.88;;
59424;SDS011;45231;44.826;20.312;2023-07-02T05:41:02;11.27;;;6.07;;
59424;SDS011;45231;44.826;20.312;2023-07-02T05:43:28;11.35;;;6.35;;
59424;SDS011;45231;44.826;20.312;2023-07-02T05:45:57;12.82;;;6.78;;
59424;SDS011;45231;44.826;20.312;2023-07-02T05:48:25;10.85;;;6.72;;
59424;SDS011;45231;44.826;20.312;2023-07-02T05:50:51;11.88;;;6.65;;
59424;SDS011;45231;44.826;20.312;2023-07-02T05:55:43;11.20;;;6.53;;
59424;SDS011;45231;44.826;20.312;2023-07-02T05:58:10;11.90;;;6.63;;
59424;SDS011;45231;44.826;20.312;2023-07-02T06:00:36;11.43;;;6.85;;
59424;SDS011;45231;44.826;20.312;2023-07-02T06:03:02;12.73;;;6.82;;
59424;SDS011;45231;44.826;20.312;2023-07-02T06:07:55;9.95;;;5.93;;
59424;SDS011;45231;44.826;20.312;2023-07-02T06:10:21;11.30;;;6.45;;
59424;SDS011;45231;44.826;20.312;2023-07-02T06:15:13;9.18;;;5.88;;
59424;SDS011;45231;44.826;20.312;2023-07-02T06:17:39;11.93;;;6.75;;
59424;SDS011;45231;44.826;20.312;2023-07-02T06:20:05;11.60;;;5.90;;
59424;SDS011;45231;44.826;20.312;2023-07-02T06:22:31;10.63;;;6.85;;
59424;SDS011;45231;44.826;20.312;2023-07-02T06:24:57;12.27;;;6.60;;
59424;SDS011;45231;44.826;20.312;2023-07-02T06:29:49;10.57;;;6.65;;
59424;SDS011;45231;44.826;20.312;2023-07-02T06:32:16;8.90;;;5.82;;
59424;SDS011;45231;44.826;20.312;2023-07-02T06:34:43;12.30;;;5.38;;
59424;SDS011;45231;44.826;20.312;2023-07-02T06:37:09;10.70;;;5.95;;
59424;SDS011;45231;44.826;20.312;2023-07-02T06:42:01;10.75;;;5.97;;
59424;SDS011;45231;44.826;20.312;2023-07-02T06:46:53;9.43;;;5.82;;
59424;SDS011;45231;44.826;20.312;2023-07-02T06:51:45;10.13;;;5.93;;
59424;SDS011;45231;44.826;20.312;2023-07-02T06:54:11;13.98;;;6.00;;
59424;SDS011;45231;44.826;20.312;2023-07-02T06:56:38;9.35;;;6.38;;
59424;SDS011;45231;44.826;20.312;2023-07-02T06:59:04;9.60;;;6.25;;
59424;SDS011;45231;44.826;20.312;2023-07-02T07:03:56;8.90;;;5.57;;
59424;SDS011;45231;44.826;20.312;2023-07-02T07:06:22;9.07;;;5.53;;
59424;SDS011;45231;44.826;20.312;2023-07-02T07:08:48;12.85;;;5.53;;
59424;SDS011;45231;44.826;20.312;2023-07-02T07:11:14;11.10;;;5.78;;
59424;SDS011;45231;44.826;20.312;2023-07-02T07:13:40;9.07;;;5.57;;
59424;SDS011;45231;44.826;20.312;2023-07-02T07:16:08;9.82;;;5.88;;
59424;SDS011;45231;44.826;20.312;2023-07-02T07:18:34;9.15;;;5.40;;
59424;SDS011;45231;44.826;20.312;2023-07-02T07:21:00;17.05;;;5.40;;
59424;SDS011;45231;44.826;20.312;2023-07-02T07:23:26;11.68;;;6.47;;
59424;SDS011;45231;44.826;20.312;2023-07-02T07:25:52;12.27;;;5.82;;
59424;SDS011;45231;44.826;20.312;2023-07-02T07:28:18;9.32;;;5.68;;
59424;SDS011;45231;44.826;20.312;2023-07-02T07:30:45;11.32;;;5.70;;
59424;SDS011;45231;44.826;20.312;2023-07-02T07:33:11;12.15;;;6.00;;
59424;SDS011;45231;44.826;20.312;2023-07-02T07:35:37;10.65;;;5.80;;
59424;SDS011;45231;44.826;20.312;2023-07-02T07:38:03;11.65;;;6.78;;
59424;SDS011;45231;44.826;20.312;2023-07-02T07:42:55;12.50;;;6.32;;
59424;SDS011;45231;44.826;20.312;2023-07-02T07:45:21;9.15;;;5.70;;
59424;SDS011;45231;44.826;20.312;2023-07-02T07:47:47;9.07;;;5.80;;
59424;SDS011;45231;44.826;20.312;2023-07-02T07:50:13;11.45;;;6.00;;
59424;SDS011;45231;44.826;20.312;2023-07-02T07:52:39;10.45;;;6.00;;
59424;SDS011;45231;44.826;20.312;2023-07-02T07:55:06;11.45;;;6.45;;
59424;SDS011;45231;44.826;20.312;2023-07-02T07:57:32;10.15;;;5.75;;
59424;SDS011;45231;44.826;20.312;2023-07-02T07:59:58;9.55;;;6.00;;
59424;SDS011;45231;44.826;20.312;2023-07-02T08:02:24;10.20;;;6.05;;
59424;SDS011;45231;44.826;20.312;2023-07-02T08:04:50;10.57;;;6.30;;
59424;SDS011;45231;44.826;20.312;2023-07-02T08:07:16;10.23;;;5.93;;
59424;SDS011;45231;44.826;20.312;2023-07-02T08:09:42;10.40;;;5.80;;
59424;SDS011;45231;44.826;20.312;2023-07-02T08:12:08;11.60;;;6.20;;
59424;SDS011;45231;44.826;20.312;2023-07-02T08:14:34;21.33;;;6.40;;
59424;SDS011;45231;44.826;20.312;2023-07-02T08:17:00;19.98;;;7.10;;
59424;SDS011;45231;44.826;20.312;2023-07-02T08:19:27;12.55;;;6.03;;
59424;SDS011;45231;44.826;20.312;2023-07-02T08:33:37;8.80;;;5.90;;
59424;SDS011;45231;44.826;20.312;2023-07-02T08:36:03;9.73;;;6.40;;
59424;SDS011;45231;44.826;20.312;2023-07-02T08:38:29;10.40;;;5.80;;
59424;SDS011;45231;44.826;20.312;2023-07-02T08:40:55;10.65;;;6.38;;
59424;SDS011;45231;44.826;20.312;2023-07-02T08:43:21;11.95;;;6.20;;
59424;SDS011;45231;44.826;20.312;2023-07-02T08:45:47;8.82;;;5.57;;
59424;SDS011;45231;44.826;20.312;2023-07-02T08:48:13;10.10;;;5.63;;
59424;SDS011;45231;44.826;20.312;2023-07-02T08:50:39;8.93;;;6.30;;
59424;SDS011;45231;44.826;20.312;2023-07-02T08:53:06;9.25;;;6.25;;
59424;SDS011;45231;44.826;20.312;2023-07-02T08:55:32;9.50;;;6.47;;
59424;SDS011;45231;44.826;20.312;2023-07-02T08:57:58;9.70;;;6.25;;
59424;SDS011;45231;44.826;20.312;2023-07-02T09:00:24;11.07;;;6.55;;
59424;SDS011;45231;44.826;20.312;2023-07-02T09:02:50;11.13;;;6.50;;
59424;SDS011;45231;44.826;20.312;2023-07-02T09:05:17;9.65;;;6.35;;
59424;SDS011;45231;44.826;20.312;2023-07-02T09:07:43;12.68;;;7.70;;
59424;SDS011;45231;44.826;20.312;2023-07-02T09:10:10;11.90;;;6.90;;
59424;SDS011;45231;44.826;20.312;2023-07-02T09:12:36;11.07;;;7.07;;
59424;SDS011;45231;44.826;20.312;2023-07-02T09:15:06;12.20;;;7.13;;
59424;SDS011;45231;44.826;20.312;2023-07-02T09:17:33;10.05;;;7.18;;
59424;SDS011;45231;44.826;20.312;2023-07-02T09:20:00;11.25;;;7.60;;
59424;SDS011;45231;44.826;20.312;2023-07-02T09:22:27;12.60;;;7.57;;
59424;SDS011;45231;44.826;20.312;2023-07-02T09:24:54;12.35;;;7.57;;
59424;SDS011;45231;44.826;20.312;2023-07-02T09:27:32;10.23;;;7.15;;
59424;SDS011;45231;44.826;20.312;2023-07-02T09:29:58;11.03;;;7.30;;
59424;SDS011;45231;44.826;20.312;2023-07-02T09:32:31;10.60;;;7.18;;
59424;SDS011;45231;44.826;20.312;2023-07-02T09:34:57;11.98;;;7.85;;
59424;SDS011;45231;44.826;20.312;2023-07-02T09:37:24;13.00;;;7.45;;
59424;SDS011;45231;44.826;20.312;2023-07-02T09:39:50;12.90;;;8.13;;
59424;SDS011;45231;44.826;20.312;2023-07-02T09:42:17;10.98;;;7.60;;
59424;SDS011;45231;44.826;20.312;2023-07-02T09:44:45;12.02;;;8.10;;
59424;SDS011;45231;44.826;20.312;2023-07-02T09:47:11;10.98;;;7.80;;
59424;SDS011;45231;44.826;20.312;2023-07-02T09:49:38;13.20;;;7.95;;
59424;SDS011;45231;44.826;20.312;2023-07-02T09:52:05;12.48;;;7.35;;
59424;SDS011;45231;44.826;20.312;2023-07-02T09:54:32;12.27;;;7.90;;
59424;SDS011;45231;44.826;20.312;2023-07-02T09:59:24;10.05;;;7.05;;
59424;SDS011;45231;44.826;20.312;2023-07-02T10:01:50;10.65;;;6.68;;
59424;SDS011;45231;44.826;20.312;2023-07-02T10:04:17;11.07;;;6.68;;
59424;SDS011;45231;44.826;20.312;2023-07-02T10:06:44;11.10;;;6.85;;
59424;SDS011;45231;44.826;20.312;2023-07-02T10:09:11;9.55;;;6.35;;
59424;SDS011;45231;44.826;20.312;2023-07-02T10:11:37;10.50;;;7.13;;
59424;SDS011;45231;44.826;20.312;2023-07-02T10:14:03;13.15;;;7.80;;
59424;SDS011;45231;44.826;20.312;2023-07-02T10:16:29;10.35;;;7.55;;
59424;SDS011;45231;44.826;20.312;2023-07-02T10:19:18;11.07;;;7.65;;
59424;SDS011;45231;44.826;20.312;2023-07-02T10:21:43;12.13;;;7.87;;
59424;SDS011;45231;44.826;20.312;2023-07-02T10:24:15;11.50;;;7.57;;
59424;SDS011;45231;44.826;20.312;2023-07-02T10:26:51;10.23;;;7.22;;
59424;SDS011;45231;44.826;20.312;2023-07-02T10:29:18;12.88;;;7.25;;
59424;SDS011;45231;44.826;20.312;2023-07-02T10:31:49;11.60;;;7.82;;
59424;SDS011;45231;44.826;20.312;2023-07-02T10:34:15;12.88;;;7.30;;
59424;SDS011;45231;44.826;20.312;2023-07-02T10:36:41;11.00;;;7.35;;
59424;SDS011;45231;44.826;20.312;2023-07-02T10:39:07;9.45;;;6.63;;
59424;SDS011;45231;44.826;20.312;2023-07-02T10:41:34;11.57;;;6.13;;
59424;SDS011;45231;44.826;20.312;2023-07-02T10:44:09;12.63;;;5.63;;
59424;SDS011;45231;44.826;20.312;2023-07-02T10:46:45;8.98;;;5.55;;
59424;SDS011;45231;44.826;20.312;2023-07-02T10:49:12;9.98;;;5.88;;
59424;SDS011;45231;44.826;20.312;2023-07-02T10:51:38;8.57;;;5.32;;
59424;SDS011;45231;44.826;20.312;2023-07-02T10:54:04;8.25;;;5.32;;
59424;SDS011;45231;44.826;20.312;2023-07-02T10:56:31;8.73;;;4.95;;
59424;SDS011;45231;44.826;20.312;2023-07-02T10:58:57;7.82;;;4.47;;
59424;SDS011;45231;44.826;20.312;2023-07-02T11:01:24;7.13;;;4.28;;
59424;SDS011;45231;44.826;20.312;2023-07-02T11:04:03;10.02;;;4.03;;
59424;SDS011;45231;44.826;20.312;2023-07-02T11:06:30;8.57;;;4.25;;
59424;SDS011;45231;44.826;20.312;2023-07-02T11:08:58;9.02;;;4.60;;
59424;SDS011;45231;44.826;20.312;2023-07-02T11:11:24;9.43;;;4.72;;
59424;SDS011;45231;44.826;20.312;2023-07-02T11:13:51;8.68;;;4.68;;
59424;SDS011;45231;44.826;20.312;2023-07-02T11:16:24;8.32;;;5.15;;
59424;SDS011;45231;44.826;20.312;2023-07-02T11:18:52;9.55;;;5.10;;
59424;SDS011;45231;44.826;20.312;2023-07-02T11:21:18;9.55;;;5.63;;
59424;SDS011;45231;44.826;20.312;2023-07-02T11:23:44;8.77;;;5.43;;
59424;SDS011;45231;44.826;20.312;2023-07-02T11:26:10;9.23;;;6.43;;
59424;SDS011;45231;44.826;20.312;2023-07-02T11:28:46;10.15;;;6.20;;
59424;SDS011;45231;44.826;20.312;2023-07-02T11:31:13;12.07;;;7.07;;
59424;SDS011;45231;44.826;20.312;2023-07-02T11:33:39;11.18;;;7.15;;
59424;SDS011;45231;44.826;20.312;2023-07-02T11:36:06;11.55;;;6.38;;
59424;SDS011;45231;44.826;20.312;2023-07-02T11:38:33;11.02;;;6.85;;
59424;SDS011;45231;44.826;20.312;2023-07-02T11:41:02;10.65;;;6.20;;
59424;SDS011;45231;44.826;20.312;2023-07-02T11:43:28;14.13;;;7.38;;
59424;SDS011;45231;44.826;20.312;2023-07-02T11:45:54;12.00;;;7.15;;
59424;SDS011;45231;44.826;20.312;2023-07-02T11:48:20;11.18;;;7.05;;
59424;SDS011;45231;44.826;20.312;2023-07-02T11:50:46;9.82;;;7.28;;
59424;SDS011;45231;44.826;20.312;2023-07-02T11:53:12;11.85;;;6.88;;
59424;SDS011;45231;44.826;20.312;2023-07-02T11:55:38;10.98;;;7.40;;
59424;SDS011;45231;44.826;20.312;2023-07-02T11:58:05;13.70;;;6.82;;
59424;SDS011;45231;44.826;20.312;2023-07-02T12:00:31;12.05;;;7.32;;
59424;SDS011;45231;44.826;20.312;2023-07-02T12:02:57;11.55;;;7.40;;
59424;SDS011;45231;44.826;20.312;2023-07-02T12:05:23;12.20;;;7.03;;
59424;SDS011;45231;44.826;20.312;2023-07-02T12:07:49;10.57;;;7.03;;
59424;SDS011;45231;44.826;20.312;2023-07-02T12:10:16;11.60;;;7.10;;
59424;SDS011;45231;44.826;20.312;2023-07-02T12:12:42;12.93;;;7.50;;
59424;SDS011;45231;44.826;20.312;2023-07-02T12:15:08;10.85;;;7.57;;
59424;SDS011;45231;44.826;20.312;2023-07-02T12:17:35;11.55;;;6.50;;
59424;SDS011;45231;44.826;20.312;2023-07-02T12:20:01;9.63;;;6.78;;
59424;SDS011;45231;44.826;20.312;2023-07-02T12:22:27;10.38;;;6.97;;
59424;SDS011;45231;44.826;20.312;2023-07-02T12:24:53;9.27;;;6.78;;
59424;SDS011;45231;44.826;20.312;2023-07-02T12:27:21;9.55;;;6.82;;
59424;SDS011;45231;44.826;20.312;2023-07-02T12:29:47;10.15;;;7.07;;
59424;SDS011;45231;44.826;20.312;2023-07-02T12:32:14;10.80;;;5.93;;
59424;SDS011;45231;44.826;20.312;2023-07-02T12:34:40;10.15;;;6.40;;
59424;SDS011;45231;44.826;20.312;2023-07-02T12:37:06;10.57;;;7.05;;
59424;SDS011;45231;44.826;20.312;2023-07-02T12:39:32;12.35;;;6.80;;
59424;SDS011;45231;44.826;20.312;2023-07-02T12:41:58;10.75;;;6.93;;
59424;SDS011;45231;44.826;20.312;2023-07-02T12:44:24;12.25;;;7.15;;
59424;SDS011;45231;44.826;20.312;2023-07-02T12:46:50;12.55;;;6.85;;
59424;SDS011;45231;44.826;20.312;2023-07-02T12:49:16;11.05;;;7.45;;
59424;SDS011;45231;44.826;20.312;2023-07-02T12:51:42;14.38;;;7.15;;
59424;SDS011;45231;44.826;20.312;2023-07-02T12:54:08;15.90;;;8.20;;
59424;SDS011;45231;44.826;20.312;2023-07-02T12:56:34;8.57;;;5.82;;
59424;SDS011;45231;44.826;20.312;2023-07-02T12:59:01;22.38;;;15.43;;
59424;SDS011;45231;44.826;20.312;2023-07-02T13:01:28;15.57;;;10.20;;
59424;SDS011;45231;44.826;20.312;2023-07-02T13:03:54;11.95;;;5.05;;
59424;SDS011;45231;44.826;20.312;2023-07-02T13:06:20;8.68;;;4.15;;
59424;SDS011;45231;44.826;20.312;2023-07-02T13:08:46;7.40;;;4.63;;
59424;SDS011;45231;44.826;20.312;2023-07-02T13:11:12;9.10;;;4.90;;
59424;SDS011;45231;44.826;20.312;2023-07-02T13:13:39;7.97;;;4.70;;
59424;SDS011;45231;44.826;20.312;2023-07-02T13:16:06;7.18;;;4.63;;
59424;SDS011;45231;44.826;20.312;2023-07-02T13:18:32;8.35;;;4.95;;
59424;SDS011;45231;44.826;20.312;2023-07-02T13:20:58;10.15;;;5.32;;
59424;SDS011;45231;44.826;20.312;2023-07-02T13:23:24;10.75;;;6.45;;
59424;SDS011;45231;44.826;20.312;2023-07-02T13:25:50;10.55;;;5.65;;
59424;SDS011;45231;44.826;20.312;2023-07-02T13:28:16;10.88;;;6.22;;
59424;SDS011;45231;44.826;20.312;2023-07-02T13:30:42;9.43;;;5.60;;
59424;SDS011;45231;44.826;20.312;2023-07-02T13:33:08;9.55;;;6.22;;
59424;SDS011;45231;44.826;20.312;2023-07-02T13:35:34;19.63;;;7.53;;
59424;SDS011;45231;44.826;20.312;2023-07-02T13:38:02;10.18;;;6.50;;
59424;SDS011;45231;44.826;20.312;2023-07-02T13:40:29;9.88;;;6.40;;
59424;SDS011;45231;44.826;20.312;2023-07-02T13:42:55;10.18;;;6.70;;
59424;SDS011;45231;44.826;20.312;2023-07-02T13:45:21;9.52;;;6.60;;
59424;SDS011;45231;44.826;20.312;2023-07-02T13:47:48;9.55;;;6.22;;
59424;SDS011;45231;44.826;20.312;2023-07-02T13:50:14;9.13;;;6.18;;
59424;SDS011;45231;44.826;20.312;2023-07-02T13:52:40;9.52;;;6.38;;
59424;SDS011;45231;44.826;20.312;2023-07-02T13:55:06;10.15;;;6.57;;
59424;SDS011;45231;44.826;20.312;2023-07-02T13:57:32;10.07;;;7.13;;
59424;SDS011;45231;44.826;20.312;2023-07-02T13:59:58;9.65;;;6.75;;
59424;SDS011;45231;44.826;20.312;2023-07-02T14:02:24;10.43;;;7.15;;
59424;SDS011;45231;44.826;20.312;2023-07-02T14:04:50;10.32;;;6.93;;
59424;SDS011;45231;44.826;20.312;2023-07-02T14:07:16;12.45;;;7.05;;
59424;SDS011;45231;44.826;20.312;2023-07-02T14:09:42;11.65;;;6.80;;
59424;SDS011;45231;44.826;20.312;2023-07-02T14:12:08;9.43;;;6.47;;
59424;SDS011;45231;44.826;20.312;2023-07-02T14:14:34;9.02;;;6.05;;
59424;SDS011;45231;44.826;20.312;2023-07-02T14:17:00;22.25;;;7.10;;
59424;SDS011;45231;44.826;20.312;2023-07-02T14:19:26;12.35;;;5.97;;
59424;SDS011;45231;44.826;20.312;2023-07-02T14:21:52;9.00;;;5.97;;
59424;SDS011;45231;44.826;20.312;2023-07-02T14:24:18;9.43;;;6.00;;
59424;SDS011;45231;44.826;20.312;2023-07-02T14:26:44;10.05;;;6.53;;
59424;SDS011;45231;44.826;20.312;2023-07-02T14:29:10;10.48;;;6.50;;
59424;SDS011;45231;44.826;20.312;2023-07-02T14:31:36;10.75;;;6.82;;
59424;SDS011;45231;44.826;20.312;2023-07-02T14:34:03;10.00;;;6.72;;
59424;SDS011;45231;44.826;20.312;2023-07-02T14:36:29;11.40;;;6.82;;
59424;SDS011;45231;44.826;20.312;2023-07-02T14:38:55;9.88;;;6.32;;
59424;SDS011;45231;44.826;20.312;2023-07-02T14:41:21;9.85;;;6.63;;
59424;SDS011;45231;44.826;20.312;2023-07-02T14:43:47;10.68;;;6.72;;
59424;SDS011;45231;44.826;20.312;2023-07-02T14:46:13;11.45;;;6.68;;
59424;SDS011;45231;44.826;20.312;2023-07-02T14:48:39;10.40;;;7.05;;
59424;SDS011;45231;44.826;20.312;2023-07-02T14:51:06;10.05;;;7.35;;
59424;SDS011;45231;44.826;20.312;2023-07-02T14:53:32;11.10;;;7.13;;
59424;SDS011;45231;44.826;20.312;2023-07-02T14:55:59;13.57;;;6.97;;
59424;SDS011;45231;44.826;20.312;2023-07-02T14:58:26;11.75;;;7.20;;
59424;SDS011;45231;44.826;20.312;2023-07-02T15:00:53;12.38;;;8.10;;
59424;SDS011;45231;44.826;20.312;2023-07-02T15:03:20;13.90;;;7.88;;
59424;SDS011;45231;44.826;20.312;2023-07-02T15:05:47;11.50;;;7.85;;
59424;SDS011;45231;44.826;20.312;2023-07-02T15:08:14;16.20;;;7.85;;
59424;SDS011;45231;44.826;20.312;2023-07-02T15:10:42;10.75;;;7.93;;
59424;SDS011;45231;44.826;20.312;2023-07-02T15:13:08;12.40;;;8.30;;
59424;SDS011;45231;44.826;20.312;2023-07-02T15:15:34;10.98;;;7.30;;
59424;SDS011;45231;44.826;20.312;2023-07-02T15:18:01;12.05;;;7.43;;
59424;SDS011;45231;44.826;20.312;2023-07-02T15:20:27;11.27;;;6.50;;
59424;SDS011;45231;44.826;20.312;2023-07-02T15:22:53;12.43;;;6.90;;
59424;SDS011;45231;44.826;20.312;2023-07-02T15:27:46;10.10;;;6.82;;
59424;SDS011;45231;44.826;20.312;2023-07-02T15:30:12;11.50;;;6.72;;
59424;SDS011;45231;44.826;20.312;2023-07-02T15:32:38;9.00;;;6.10;;
59424;SDS011;45231;44.826;20.312;2023-07-02T15:35:04;10.02;;;6.55;;
59424;SDS011;45231;44.826;20.312;2023-07-02T15:37:30;10.77;;;6.05;;
59424;SDS011;45231;44.826;20.312;2023-07-02T15:39:56;11.10;;;6.65;;
59424;SDS011;45231;44.826;20.312;2023-07-02T15:42:22;10.48;;;6.40;;
59424;SDS011;45231;44.826;20.312;2023-07-02T15:44:53;9.80;;;6.40;;
59424;SDS011;45231;44.826;20.312;2023-07-02T15:47:19;10.27;;;6.28;;
59424;SDS011;45231;44.826;20.312;2023-07-02T15:49:45;9.30;;;5.80;;
59424;SDS011;45231;44.826;20.312;2023-07-02T15:52:11;10.43;;;6.03;;
59424;SDS011;45231;44.826;20.312;2023-07-02T15:54:37;10.82;;;5.82;;
59424;SDS011;45231;44.826;20.312;2023-07-02T15:57:03;9.27;;;5.65;;
59424;SDS011;45231;44.826;20.312;2023-07-02T15:59:29;9.18;;;6.18;;
59424;SDS011;45231;44.826;20.312;2023-07-02T16:01:56;10.23;;;5.75;;
59424;SDS011;45231;44.826;20.312;2023-07-02T16:04:22;9.40;;;5.63;;
59424;SDS011;45231;44.826;20.312;2023-07-02T16:06:48;10.45;;;5.90;;
59424;SDS011;45231;44.826;20.312;2023-07-02T16:09:14;10.57;;;5.40;;
59424;SDS011;45231;44.826;20.312;2023-07-02T16:11:40;14.82;;;5.68;;
59424;SDS011;45231;44.826;20.312;2023-07-02T16:14:10;11.02;;;5.00;;
59424;SDS011;45231;44.826;20.312;2023-07-02T16:16:37;8.07;;;4.78;;
59424;SDS011;45231;44.826;20.312;2023-07-02T16:19:05;8.38;;;4.68;;
59424;SDS011;45231;44.826;20.312;2023-07-02T16:21:32;8.73;;;5.10;;
59424;SDS011;45231;44.826;20.312;2023-07-02T16:23:59;7.72;;;4.90;;
59424;SDS011;45231;44.826;20.312;2023-07-02T16:26:25;9.38;;;4.88;;
59424;SDS011;45231;44.826;20.312;2023-07-02T16:28:51;9.80;;;5.13;;
59424;SDS011;45231;44.826;20.312;2023-07-02T16:33:44;9.90;;;5.13;;
59424;SDS011;45231;44.826;20.312;2023-07-02T16:38:36;8.07;;;4.88;;
59424;SDS011;45231;44.826;20.312;2023-07-02T16:41:03;8.30;;;4.68;;
59424;SDS011;45231;44.826;20.312;2023-07-02T16:43:30;10.25;;;5.25;;
59424;SDS011;45231;44.826;20.312;2023-07-02T16:45:57;9.10;;;4.75;;
59424;SDS011;45231;44.826;20.312;2023-07-02T16:50:55;17.33;;;5.28;;
59424;SDS011;45231;44.826;20.312;2023-07-02T16:53:21;11.77;;;4.72;;
59424;SDS011;45231;44.826;20.312;2023-07-02T16:55:47;11.95;;;4.70;;